createdAt,value
2019-03-13T00:00:03.786Z,60
2019-03-13T00:01:02.926Z,61
2019-03-13T00:02:03.657Z,61
2019-03-13T00:03:03.490Z,61
2019-03-13T00:04:03.608Z,61
2019-03-13T00:05:02.728Z,61
2019-03-13T00:06:03.683Z,61
2019-03-13T00:07:02.814Z,61
2019-03-13T00:08:03.516Z,61
2019-03-13T00:09:03.717Z,61
2019-03-13T00:10:02.939Z,61
2019-03-13T00:11:03.519Z,61
2019-03-13T00:12:03.124Z,61
2019-03-13T00:13:02.939Z,62
2019-03-13T00:14:02.812Z,62
2019-03-13T00:15:03.626Z,62
2019-03-13T00:16:02.960Z,62
2019-03-13T00:17:03.448Z,62
2019-03-13T00:18:03.208Z,63
2019-03-13T00:19:03.327Z,63
2019-03-13T00:20:03.841Z,63
2019-03-13T00:21:03.812Z,63
2019-03-13T00:22:03.580Z,63
2019-03-13T00:23:03.608Z,63
2019-03-13T00:24:03.588Z,63
2019-03-13T00:25:03.751Z,63
2019-03-13T00:26:03.472Z,63
2019-03-13T00:27:03.625Z,64
2019-03-13T00:28:03.555Z,64
2019-03-13T00:29:03.736Z,64
2019-03-13T00:30:03.305Z,64
2019-03-13T00:31:03.334Z,64
2019-03-13T00:32:03.467Z,64
2019-03-13T00:33:03.096Z,64
2019-03-13T00:34:03.353Z,64
2019-03-13T00:35:03.409Z,64
2019-03-13T00:36:03.259Z,64
2019-03-13T00:37:03.352Z,65
2019-03-13T00:38:03.598Z,65
2019-03-13T00:39:03.051Z,65
2019-03-13T00:40:03.694Z,65
2019-03-13T00:41:03.423Z,65
2019-03-13T00:42:03.498Z,65
2019-03-13T00:43:03.632Z,65
2019-03-13T00:44:03.333Z,65
2019-03-13T00:45:03.750Z,65
2019-03-13T00:46:03.139Z,66
2019-03-13T00:47:03.348Z,66
2019-03-13T00:48:03.434Z,66
2019-03-13T00:49:03.409Z,66
2019-03-13T00:50:03.277Z,66
2019-03-13T00:51:02.932Z,66
2019-03-13T00:52:03.315Z,66
2019-03-13T00:53:03.256Z,66
2019-03-13T00:54:03.078Z,66
2019-03-13T00:55:03.432Z,66
2019-03-13T00:56:03.087Z,66
2019-03-13T00:57:03.441Z,66
2019-03-13T00:58:03.371Z,66
2019-03-13T00:59:03.082Z,66
2019-03-13T01:00:03.144Z,66
2019-03-13T01:01:02.836Z,66
2019-03-13T01:02:03.074Z,66
2019-03-13T01:03:02.804Z,66
2019-03-13T01:04:02.749Z,66
2019-03-13T01:05:02.774Z,66
2019-03-13T01:06:03.248Z,66
2019-03-13T01:07:02.863Z,66
2019-03-13T01:08:03.548Z,66
2019-03-13T01:09:03.755Z,66
2019-03-13T01:10:02.952Z,66
2019-03-13T01:11:03.002Z,66
2019-03-13T01:12:02.775Z,66
2019-03-13T01:13:03.800Z,66
2019-03-13T01:14:03.664Z,66
2019-03-13T01:15:02.790Z,67
2019-03-13T01:16:03.674Z,67
2019-03-13T01:17:02.880Z,67
2019-03-13T01:18:03.507Z,67
2019-03-13T01:19:03.662Z,67
2019-03-13T01:20:03.230Z,67
2019-03-13T01:21:03.304Z,67
2019-03-13T01:22:03.521Z,67
2019-03-13T01:23:03.533Z,67
2019-03-13T01:24:03.545Z,67
2019-03-13T01:25:02.968Z,67
2019-03-13T01:26:03.390Z,67
2019-03-13T01:27:03.311Z,67
2019-03-13T01:28:03.153Z,67
2019-03-13T01:29:03.117Z,68
2019-03-13T01:30:03.665Z,68
2019-03-13T01:31:03.105Z,68
2019-03-13T01:32:02.980Z,68
2019-03-13T01:33:03.054Z,68
2019-03-13T01:34:03.230Z,68
2019-03-13T01:35:03.238Z,68
2019-03-13T01:36:02.952Z,68
2019-03-13T01:37:02.965Z,68
2019-03-13T01:38:03.440Z,68
2019-03-13T01:39:02.769Z,68
2019-03-13T01:40:02.915Z,68
2019-03-13T01:41:03.762Z,68
2019-03-13T01:42:03.674Z,68
2019-03-13T01:43:03.648Z,68
2019-03-13T01:44:03.641Z,68
2019-03-13T01:45:03.469Z,68
2019-03-13T01:46:03.439Z,68
2019-03-13T01:47:03.701Z,68
2019-03-13T01:48:03.476Z,68
2019-03-13T01:49:03.234Z,68
2019-03-13T01:50:03.051Z,68
2019-03-13T01:51:03.709Z,68
2019-03-13T01:52:02.113Z,68
2019-03-13T01:53:03.329Z,68
2019-03-13T01:54:03.545Z,68
2019-03-13T01:55:03.355Z,69
2019-03-13T01:56:03.163Z,69
2019-03-13T01:57:03.308Z,69
2019-03-13T01:58:03.446Z,69
2019-03-13T01:59:03.100Z,69
2019-03-13T02:00:03.116Z,69
2019-03-13T02:01:02.627Z,69
2019-03-13T02:02:03.109Z,69
2019-03-13T02:03:02.923Z,70
2019-03-13T02:04:03.004Z,70
2019-03-13T02:05:02.883Z,70
2019-03-13T02:06:03.263Z,70
2019-03-13T02:07:03.805Z,70
2019-03-13T02:08:03.734Z,70
2019-03-13T02:09:03.572Z,70
2019-03-13T02:10:02.831Z,70
2019-03-13T02:11:02.880Z,70
2019-03-13T02:12:03.658Z,70
2019-03-13T02:13:03.371Z,70
2019-03-13T02:14:03.564Z,70
2019-03-13T02:15:02.869Z,71
2019-03-13T02:16:03.512Z,71
2019-03-13T02:17:03.847Z,71
2019-03-13T02:18:03.527Z,71
2019-03-13T02:19:03.529Z,71
2019-03-13T02:20:03.598Z,71
2019-03-13T02:21:03.742Z,71
2019-03-13T02:22:03.733Z,71
2019-03-13T02:23:03.674Z,71
2019-03-13T02:24:03.784Z,71
2019-03-13T02:25:03.359Z,71
2019-03-13T02:26:03.667Z,71
2019-03-13T02:27:03.467Z,71
2019-03-13T02:28:03.641Z,71
2019-03-13T02:29:03.457Z,71
2019-03-13T02:30:03.307Z,71
2019-03-13T02:31:03.323Z,71
2019-03-13T02:32:03.216Z,71
2019-03-13T02:33:03.376Z,71
2019-03-13T02:34:03.369Z,71
2019-03-13T02:35:03.721Z,71
2019-03-13T02:36:03.016Z,72
2019-03-13T02:37:02.926Z,72
2019-03-13T02:38:03.239Z,72
2019-03-13T02:39:03.255Z,71
2019-03-13T02:40:03.205Z,71
2019-03-13T02:41:02.981Z,71
2019-03-13T02:42:03.228Z,71
2019-03-13T02:43:03.192Z,71
2019-03-13T02:44:03.083Z,70
2019-03-13T02:45:03.083Z,70
2019-03-13T02:46:03.197Z,69
2019-03-13T02:47:03.012Z,69
2019-03-13T02:48:03.302Z,69
2019-03-13T02:49:02.888Z,69
2019-03-13T02:50:03.252Z,68
2019-03-13T02:51:02.908Z,68
2019-03-13T02:52:03.344Z,67
2019-03-13T02:53:03.004Z,67
2019-03-13T02:54:02.653Z,66
2019-03-13T02:55:02.973Z,66
2019-03-13T02:56:03.211Z,66
2019-03-13T02:57:02.873Z,66
2019-03-13T02:58:03.704Z,66
2019-03-13T02:59:03.109Z,65
2019-03-13T03:00:03.765Z,65
2019-03-13T03:01:03.572Z,65
2019-03-13T03:02:03.638Z,64
2019-03-13T03:03:03.868Z,64
2019-03-13T03:04:03.589Z,64
2019-03-13T03:05:03.310Z,64
2019-03-13T03:06:03.466Z,64
2019-03-13T03:07:03.409Z,64
2019-03-13T03:08:03.801Z,64
2019-03-13T03:09:03.140Z,64
2019-03-13T03:10:03.327Z,63
2019-03-13T03:11:03.268Z,63
2019-03-13T03:12:03.336Z,63
2019-03-13T03:13:03.309Z,63
2019-03-13T03:14:03.425Z,63
2019-03-13T03:15:03.351Z,63
2019-03-13T03:16:02.823Z,63
2019-03-13T03:17:03.286Z,63
2019-03-13T03:18:02.777Z,63
2019-03-13T03:19:03.168Z,63
2019-03-13T03:20:03.263Z,63
2019-03-13T03:21:03.184Z,63
2019-03-13T03:22:02.971Z,63
2019-03-13T03:23:03.086Z,63
2019-03-13T03:24:03.114Z,63
2019-03-13T03:25:02.883Z,63
2019-03-13T03:26:03.051Z,63
2019-03-13T03:27:03.107Z,63
2019-03-13T03:28:03.069Z,63
2019-03-13T03:29:03.521Z,63
2019-03-13T03:30:03.177Z,64
2019-03-13T03:31:02.909Z,64
2019-03-13T03:32:02.922Z,64
2019-03-13T03:33:02.662Z,64
2019-03-13T03:34:03.228Z,64
2019-03-13T03:35:03.068Z,63
2019-03-13T03:36:03.462Z,63
2019-03-13T03:37:03.362Z,63
2019-03-13T03:38:03.737Z,63
2019-03-13T03:39:03.882Z,63
2019-03-13T03:40:03.746Z,63
2019-03-13T03:41:03.758Z,63
2019-03-13T03:42:03.371Z,63
2019-03-13T03:43:03.572Z,63
2019-03-13T03:44:03.492Z,63
2019-03-13T03:45:03.326Z,63
2019-03-13T03:46:03.028Z,63
2019-03-13T03:47:03.428Z,63
2019-03-13T03:48:03.316Z,63
2019-03-13T03:49:02.099Z,63
2019-03-13T03:50:03.366Z,64
2019-03-13T03:51:03.076Z,64
2019-03-13T03:52:03.034Z,64
2019-03-13T03:53:02.989Z,64
2019-03-13T03:54:03.188Z,64
2019-03-13T03:55:03.001Z,64
2019-03-13T03:56:03.321Z,64
2019-03-13T03:57:03.255Z,65
2019-03-13T03:58:03.094Z,65
2019-03-13T03:59:03.203Z,65
2019-03-13T04:00:03.083Z,65
2019-03-13T04:01:02.719Z,65
2019-03-13T04:02:03.746Z,65
2019-03-13T04:03:02.669Z,66
2019-03-13T04:04:03.036Z,66
2019-03-13T04:05:03.864Z,66
2019-03-13T04:06:03.642Z,66
2019-03-13T04:07:03.761Z,66
2019-03-13T04:08:03.690Z,66
2019-03-13T04:09:02.989Z,66
2019-03-13T04:10:03.932Z,66
2019-03-13T04:11:03.892Z,66
2019-03-13T04:12:03.450Z,66
2019-03-13T04:13:03.530Z,65
2019-03-13T04:14:03.659Z,65
2019-03-13T04:15:03.779Z,65
2019-03-13T04:16:03.374Z,65
2019-03-13T04:17:03.469Z,65
2019-03-13T04:18:03.537Z,65
2019-03-13T04:19:03.613Z,65
2019-03-13T04:20:03.845Z,65
2019-03-13T04:21:03.392Z,65
2019-03-13T04:22:03.450Z,65
2019-03-13T04:23:03.622Z,65
2019-03-13T04:24:03.403Z,65
2019-03-13T04:25:03.380Z,65
2019-03-13T04:26:03.411Z,65
2019-03-13T04:27:03.411Z,65
2019-03-13T04:28:03.200Z,66
2019-03-13T04:29:02.759Z,66
2019-03-13T04:30:03.310Z,66
2019-03-13T04:31:03.296Z,66
2019-03-13T04:32:03.077Z,66
2019-03-13T04:33:02.919Z,66
2019-03-13T04:34:02.704Z,66
2019-03-13T04:35:03.210Z,66
2019-03-13T04:36:03.106Z,66
2019-03-13T04:37:03.874Z,66
2019-03-13T04:38:03.117Z,66
2019-03-13T04:39:02.835Z,66
2019-03-13T04:40:03.087Z,66
2019-03-13T04:41:03.859Z,66
2019-03-13T04:42:03.828Z,66
2019-03-13T04:43:03.047Z,66
2019-03-13T04:44:03.403Z,66
2019-03-13T04:45:03.889Z,66
2019-03-13T04:46:03.759Z,67
2019-03-13T04:47:03.026Z,67
2019-03-13T04:48:03.687Z,67
2019-03-13T04:49:03.696Z,67
2019-03-13T04:50:03.488Z,67
2019-03-13T04:51:03.352Z,67
2019-03-13T04:52:03.802Z,67
2019-03-13T04:53:03.616Z,67
2019-03-13T04:54:03.682Z,67
2019-03-13T04:55:03.153Z,67
2019-03-13T04:56:03.543Z,67
2019-03-13T04:57:03.466Z,67
2019-03-13T04:58:02.927Z,67
2019-03-13T04:59:03.340Z,67
2019-03-13T05:00:03.602Z,68
2019-03-13T05:01:03.502Z,68
2019-03-13T05:02:03.343Z,68
2019-03-13T05:03:03.521Z,67
2019-03-13T05:04:03.707Z,67
2019-03-13T05:05:03.328Z,67
2019-03-13T05:06:03.199Z,67
2019-03-13T05:07:03.340Z,67
2019-03-13T05:08:03.112Z,66
2019-03-13T05:09:02.952Z,66
2019-03-13T05:10:03.152Z,66
2019-03-13T05:11:03.120Z,66
2019-03-13T05:12:03.076Z,66
2019-03-13T05:13:04.101Z,66
2019-03-13T05:14:02.988Z,66
2019-03-13T05:15:03.355Z,66
2019-03-13T05:16:02.995Z,66
2019-03-13T05:17:03.110Z,66
2019-03-13T05:18:03.454Z,66
2019-03-13T05:19:03.023Z,66
2019-03-13T05:20:03.289Z,66
2019-03-13T05:21:02.889Z,66
2019-03-13T05:22:02.812Z,66
2019-03-13T05:23:03.110Z,66
2019-03-13T05:24:03.029Z,66
2019-03-13T05:25:02.875Z,66
2019-03-13T05:26:03.148Z,66
2019-03-13T05:27:03.056Z,66
2019-03-13T05:28:03.862Z,66
2019-03-13T05:29:03.745Z,66
2019-03-13T05:30:03.891Z,66
2019-03-13T05:31:03.119Z,66
2019-03-13T05:32:03.685Z,66
2019-03-13T05:33:03.582Z,66
2019-03-13T05:34:03.685Z,66
2019-03-13T05:35:03.369Z,67
2019-03-13T05:36:03.699Z,67
2019-03-13T05:37:02.996Z,67
2019-03-13T05:38:03.831Z,67
2019-03-13T05:39:03.470Z,67
2019-03-13T05:40:03.510Z,67
2019-03-13T05:41:03.372Z,67
2019-03-13T05:42:03.630Z,67
2019-03-13T05:43:03.529Z,67
2019-03-13T05:44:03.638Z,67
2019-03-13T05:45:03.521Z,67
2019-03-13T05:46:03.343Z,67
2019-03-13T05:47:03.411Z,67
2019-03-13T05:48:03.705Z,67
2019-03-13T05:49:03.400Z,67
2019-03-13T05:50:03.392Z,67
2019-03-13T05:51:03.516Z,67
2019-03-13T05:52:03.106Z,67
2019-03-13T05:53:03.296Z,67
2019-03-13T05:54:03.282Z,67
2019-03-13T05:55:03.152Z,67
2019-03-13T05:56:03.218Z,67
2019-03-13T05:57:02.907Z,67
2019-03-13T05:58:03.145Z,67
2019-03-13T05:59:03.413Z,67
2019-03-13T06:00:03.478Z,67
2019-03-13T06:01:03.249Z,67
2019-03-13T06:02:03.206Z,67
2019-03-13T06:03:03.064Z,67
2019-03-13T06:04:03.305Z,67
2019-03-13T06:05:03.191Z,67
2019-03-13T06:06:03.203Z,67
2019-03-13T06:07:03.118Z,67
2019-03-13T06:08:02.893Z,67
2019-03-13T06:09:02.867Z,67
2019-03-13T06:10:03.057Z,67
2019-03-13T06:11:03.390Z,67
2019-03-13T06:12:02.932Z,67
2019-03-13T06:13:03.383Z,67
2019-03-13T06:14:03.599Z,67
2019-03-13T06:15:04.026Z,67
2019-03-13T06:16:03.819Z,67
2019-03-13T06:17:03.743Z,67
2019-03-13T06:18:03.633Z,67
2019-03-13T06:19:03.630Z,67
2019-03-13T06:20:03.070Z,67
2019-03-13T06:21:03.476Z,67
2019-03-13T06:22:03.718Z,67
2019-03-13T06:23:03.505Z,67
2019-03-13T06:24:03.676Z,67
2019-03-13T06:25:03.595Z,67
2019-03-13T06:26:03.714Z,67
2019-03-13T06:27:03.305Z,68
2019-03-13T06:28:03.288Z,68
2019-03-13T06:29:03.463Z,68
2019-03-13T06:30:03.712Z,68
2019-03-13T06:31:03.394Z,68
2019-03-13T06:32:03.342Z,68
2019-03-13T06:33:03.423Z,68
2019-03-13T06:34:03.312Z,68
2019-03-13T06:35:03.249Z,68
2019-03-13T06:36:03.258Z,68
2019-03-13T06:37:03.352Z,68
2019-03-13T06:38:03.101Z,68
2019-03-13T06:39:03.116Z,68
2019-03-13T06:40:03.078Z,68
2019-03-13T06:41:05.604Z,68
2019-03-13T06:42:02.842Z,68
2019-03-13T06:43:03.170Z,68
2019-03-13T06:44:03.195Z,68
2019-03-13T06:45:02.851Z,68
2019-03-13T06:46:03.019Z,68
2019-03-13T06:47:03.738Z,68
2019-03-13T06:48:03.031Z,68
2019-03-13T06:49:03.849Z,68
2019-03-13T06:50:03.842Z,68
2019-03-13T06:51:03.775Z,68
2019-03-13T06:52:03.748Z,68
2019-03-13T06:53:03.818Z,68
2019-03-13T06:54:03.754Z,68
2019-03-13T06:55:03.716Z,68
2019-03-13T06:56:03.699Z,68
2019-03-13T06:57:03.459Z,68
2019-03-13T06:58:03.427Z,68
2019-03-13T06:59:03.525Z,68
2019-03-13T07:00:03.574Z,68
2019-03-13T07:01:03.452Z,68
2019-03-13T07:02:03.093Z,68
2019-03-13T07:03:03.068Z,68
2019-03-13T07:04:03.251Z,68
2019-03-13T07:05:03.775Z,68
2019-03-13T07:06:03.579Z,68
2019-03-13T07:07:03.163Z,68
2019-03-13T07:08:03.336Z,68
2019-03-13T07:09:03.101Z,68
2019-03-13T07:10:03.274Z,69
2019-03-13T07:11:03.241Z,68
2019-03-13T07:12:03.261Z,69
2019-03-13T07:13:02.907Z,69
2019-03-13T07:14:03.192Z,69
2019-03-13T07:15:03.343Z,69
2019-03-13T07:16:03.726Z,69
2019-03-13T07:17:02.853Z,69
2019-03-13T07:18:03.251Z,69
2019-03-13T07:19:03.192Z,69
2019-03-13T07:20:02.659Z,69
2019-03-13T07:21:02.856Z,69
2019-03-13T07:22:02.950Z,69
2019-03-13T07:23:02.970Z,69
2019-03-13T07:24:03.070Z,69
2019-03-13T07:25:02.762Z,69
2019-03-13T07:26:02.745Z,69
2019-03-13T07:27:03.097Z,69
2019-03-13T07:28:03.834Z,69
2019-03-13T07:29:13.062Z,69
2019-03-13T07:30:03.411Z,69
2019-03-13T07:31:02.914Z,69
2019-03-13T07:32:03.611Z,69
2019-03-13T07:33:03.743Z,69
2019-03-13T07:34:03.711Z,69
2019-03-13T07:35:04.023Z,69
2019-03-13T07:36:03.614Z,69
2019-03-13T07:37:03.388Z,69
2019-03-13T07:38:03.391Z,69
2019-03-13T07:39:03.521Z,69
2019-03-13T07:40:03.536Z,68
2019-03-13T07:41:03.675Z,68
2019-03-13T07:42:03.662Z,68
2019-03-13T07:43:03.451Z,68
2019-03-13T07:44:03.702Z,68
2019-03-13T07:45:03.528Z,68
2019-03-13T07:46:03.410Z,68
2019-03-13T07:47:03.284Z,68
2019-03-13T07:48:03.779Z,68
2019-03-13T07:49:03.232Z,68
2019-03-13T07:50:03.149Z,68
2019-03-13T07:51:03.704Z,67
2019-03-13T07:52:03.152Z,67
2019-03-13T07:53:03.569Z,67
2019-03-13T07:54:03.469Z,67
2019-03-13T07:55:03.528Z,67
2019-03-13T07:56:03.284Z,67
2019-03-13T07:57:03.149Z,68
2019-03-13T07:58:03.138Z,68
2019-03-13T07:59:02.897Z,67
2019-03-13T08:00:03.423Z,67
2019-03-13T08:01:03.025Z,67
2019-03-13T08:02:03.256Z,67
2019-03-13T08:03:02.723Z,67
2019-03-13T08:04:05.996Z,67
2019-03-13T08:05:02.955Z,67
2019-03-13T08:06:03.139Z,67
2019-03-13T08:07:03.038Z,67
2019-03-13T08:08:03.317Z,66
2019-03-13T08:09:03.162Z,66
2019-03-13T08:10:03.064Z,66
2019-03-13T08:11:03.005Z,65
2019-03-13T08:12:03.271Z,65
2019-03-13T08:13:03.112Z,66
2019-03-13T08:14:03.584Z,66
2019-03-13T08:15:03.486Z,66
2019-03-13T08:16:03.413Z,66
2019-03-13T08:17:03.580Z,66
2019-03-13T08:18:03.738Z,66
2019-03-13T08:19:03.700Z,65
2019-03-13T08:20:03.638Z,65
2019-03-13T08:21:03.379Z,65
2019-03-13T08:22:03.439Z,65
2019-03-13T08:23:03.488Z,65
2019-03-13T08:24:03.431Z,65
2019-03-13T08:25:03.282Z,65
2019-03-13T08:26:03.359Z,65
2019-03-13T08:27:03.368Z,65
2019-03-13T08:28:03.488Z,65
2019-03-13T08:29:03.414Z,65
2019-03-13T08:30:03.141Z,65
2019-03-13T08:31:03.398Z,65
2019-03-13T08:32:03.029Z,65
2019-03-13T08:33:03.789Z,65
2019-03-13T08:34:03.257Z,64
2019-03-13T08:35:02.843Z,64
2019-03-13T08:36:03.383Z,64
2019-03-13T08:37:03.147Z,64
2019-03-13T08:38:03.784Z,64
2019-03-13T08:39:03.421Z,64
2019-03-13T08:40:03.135Z,64
2019-03-13T08:41:03.324Z,63
2019-03-13T08:42:03.200Z,64
2019-03-13T08:43:03.098Z,64
2019-03-13T08:44:03.019Z,64
2019-03-13T08:45:03.035Z,63
2019-03-13T08:46:03.006Z,63
2019-03-13T08:47:02.937Z,63
2019-03-13T08:48:02.985Z,63
2019-03-13T08:49:03.973Z,63
2019-03-13T08:50:02.996Z,63
2019-03-13T08:51:03.181Z,63
2019-03-13T08:52:03.732Z,63
2019-03-13T08:53:02.904Z,63
2019-03-13T08:54:02.825Z,63
2019-03-13T08:55:04.461Z,63
2019-03-13T08:56:03.640Z,63
2019-03-13T08:57:03.522Z,63
2019-03-13T08:58:03.789Z,63
2019-03-13T08:59:03.710Z,63
2019-03-13T09:00:02.925Z,63
2019-03-13T09:01:03.509Z,63
2019-03-13T09:02:03.447Z,63
2019-03-13T09:03:03.708Z,63
2019-03-13T09:04:02.642Z,63
2019-03-13T09:05:03.564Z,63
2019-03-13T09:06:03.337Z,63
2019-03-13T09:07:03.496Z,63
2019-03-13T09:08:03.537Z,63
2019-03-13T09:09:03.534Z,62
2019-03-13T09:10:03.692Z,62
2019-03-13T09:11:03.549Z,62
2019-03-13T09:12:03.426Z,61
2019-03-13T09:13:03.239Z,61
2019-03-13T09:14:03.459Z,61
2019-03-13T09:15:03.410Z,61
2019-03-13T09:16:03.514Z,61
2019-03-13T09:17:03.266Z,61
2019-03-13T09:18:03.407Z,60
2019-03-13T09:19:02.938Z,60
2019-03-13T09:20:03.306Z,60
2019-03-13T09:21:03.152Z,60
2019-03-13T09:22:03.273Z,60
2019-03-13T09:23:02.987Z,59
2019-03-13T09:24:02.924Z,59
2019-03-13T09:25:12.968Z,58
2019-03-13T09:26:03.220Z,58
2019-03-13T09:27:03.556Z,57
2019-03-13T09:28:03.197Z,58
2019-03-13T09:29:02.751Z,58
2019-03-13T09:30:03.013Z,57
2019-03-13T09:31:03.058Z,58
2019-03-13T09:32:03.400Z,58
2019-03-13T09:33:03.025Z,58
2019-03-13T09:34:02.870Z,58
2019-03-13T09:35:02.957Z,58
2019-03-13T09:36:02.931Z,57
2019-03-13T09:37:03.862Z,55
2019-03-13T09:38:03.658Z,55
2019-03-13T09:39:03.889Z,56
2019-03-13T09:40:03.730Z,56
2019-03-13T09:41:03.605Z,56
2019-03-13T09:42:03.668Z,56
2019-03-13T09:43:03.223Z,57
2019-03-13T09:44:03.040Z,57
2019-03-13T09:45:03.570Z,57
2019-03-13T09:46:03.581Z,58
2019-03-13T09:47:03.310Z,58
2019-03-13T09:48:03.719Z,58
2019-03-13T09:49:02.447Z,58
2019-03-13T09:50:03.665Z,58
2019-03-13T09:51:03.132Z,57
2019-03-13T09:52:03.656Z,57
2019-03-13T09:53:03.429Z,57
2019-03-13T09:54:03.270Z,57
2019-03-13T09:55:04.962Z,57
2019-03-13T09:56:03.337Z,57
2019-03-13T09:57:03.264Z,58
2019-03-13T09:58:03.317Z,58
2019-03-13T09:59:03.374Z,58
2019-03-13T10:00:03.165Z,58
2019-03-13T10:01:02.855Z,58
2019-03-13T10:02:02.781Z,58
2019-03-13T10:03:03.162Z,58
2019-03-13T10:04:02.940Z,58
2019-03-13T10:05:03.176Z,58
2019-03-13T10:06:03.141Z,59
2019-03-13T10:07:02.864Z,59
2019-03-13T10:08:03.875Z,59
2019-03-13T10:09:02.881Z,59
2019-03-13T10:10:02.907Z,59
2019-03-13T10:11:02.984Z,59
2019-03-13T10:12:03.171Z,59
2019-03-13T10:13:03.696Z,59
2019-03-13T10:14:02.992Z,60
2019-03-13T10:15:03.543Z,60
2019-03-13T10:16:02.925Z,60
2019-03-13T10:17:11.555Z,61
2019-03-13T10:18:02.985Z,61
2019-03-13T10:19:03.288Z,61
2019-03-13T10:20:03.753Z,61
2019-03-13T10:21:03.720Z,62
2019-03-13T10:22:03.671Z,62
2019-03-13T10:23:03.783Z,62
2019-03-13T10:24:03.026Z,62
2019-03-13T10:25:03.850Z,62
2019-03-13T10:26:03.572Z,62
2019-03-13T10:27:02.873Z,61
2019-03-13T10:28:03.504Z,61
2019-03-13T10:29:03.682Z,61
2019-03-13T10:30:02.987Z,61
2019-03-13T10:31:03.619Z,61
2019-03-13T10:32:03.221Z,61
2019-03-13T10:33:03.645Z,61
2019-03-13T10:34:03.794Z,60
2019-03-13T10:35:03.709Z,60
2019-03-13T10:36:03.465Z,60
2019-03-13T10:37:03.448Z,59
2019-03-13T10:38:14.693Z,59
2019-03-13T10:39:03.525Z,59
2019-03-13T10:40:03.561Z,59
2019-03-13T10:41:03.433Z,59
2019-03-13T10:42:03.371Z,59
2019-03-13T10:43:03.443Z,59
2019-03-13T10:44:03.243Z,59
2019-03-13T10:45:03.038Z,59
2019-03-13T10:46:03.718Z,59
2019-03-13T10:47:02.994Z,58
2019-03-13T10:48:03.156Z,58
2019-03-13T10:49:02.856Z,58
2019-03-13T10:50:03.245Z,58
2019-03-13T10:51:03.315Z,58
2019-03-13T10:52:02.937Z,57
2019-03-13T10:53:03.034Z,57
2019-03-13T10:54:03.323Z,58
2019-03-13T10:55:03.239Z,57
2019-03-13T10:56:02.722Z,57
2019-03-13T10:57:03.040Z,57
2019-03-13T10:58:02.975Z,57
2019-03-13T10:59:02.838Z,57
2019-03-13T11:00:03.001Z,58
2019-03-13T11:01:03.567Z,58
2019-03-13T11:02:02.972Z,58
2019-03-13T11:03:02.830Z,58
2019-03-13T11:04:03.035Z,58
2019-03-13T11:05:03.078Z,58
2019-03-13T11:06:03.030Z,58
2019-03-13T11:07:03.135Z,58
2019-03-13T11:08:03.848Z,58
2019-03-13T11:09:02.885Z,58
2019-03-13T11:10:03.534Z,58
2019-03-13T11:11:02.873Z,58
2019-03-13T11:12:03.665Z,58
2019-03-13T11:13:03.581Z,58
2019-03-13T11:14:16.330Z,58
2019-03-13T11:15:02.476Z,58
2019-03-13T11:16:03.604Z,58
2019-03-13T11:17:03.602Z,58
2019-03-13T11:18:03.773Z,58
2019-03-13T11:19:03.566Z,58
2019-03-13T11:20:03.247Z,58
2019-03-13T11:21:03.550Z,58
2019-03-13T11:22:03.402Z,58
2019-03-13T11:23:03.182Z,57
2019-03-13T11:24:03.175Z,57
2019-03-13T11:25:03.267Z,57
2019-03-13T11:26:03.486Z,57
2019-03-13T11:27:03.014Z,57
2019-03-13T11:28:03.040Z,57
2019-03-13T11:29:03.263Z,56
2019-03-13T11:30:03.148Z,56
2019-03-13T11:31:03.041Z,56
2019-03-13T11:32:02.806Z,56
2019-03-13T11:33:03.017Z,57
2019-03-13T11:34:02.706Z,57
2019-03-13T11:35:03.364Z,57
2019-03-13T11:36:02.973Z,57
2019-03-13T11:37:03.060Z,57
2019-03-13T11:38:02.863Z,57
2019-03-13T11:39:03.244Z,57
2019-03-13T11:40:02.816Z,57
2019-03-13T11:41:03.057Z,57
2019-03-13T11:42:02.497Z,56
2019-03-13T11:43:03.710Z,56
2019-03-13T11:44:03.556Z,55
2019-03-13T11:45:03.945Z,55
2019-03-13T11:46:03.750Z,55
2019-03-13T11:47:03.600Z,55
2019-03-13T11:48:03.452Z,55
2019-03-13T11:49:03.831Z,55
2019-03-13T11:50:03.907Z,55
2019-03-13T11:51:03.451Z,55
2019-03-13T11:52:03.475Z,55
2019-03-13T11:53:03.468Z,55
2019-03-13T11:54:03.360Z,55
2019-03-13T11:55:03.238Z,55
2019-03-13T11:56:03.736Z,55
2019-03-13T11:57:03.811Z,55
2019-03-13T11:58:03.520Z,55
2019-03-13T11:59:03.481Z,55
2019-03-13T12:00:03.680Z,55
2019-03-13T12:01:03.168Z,55
2019-03-13T12:02:03.073Z,55
2019-03-13T12:03:03.406Z,55
2019-03-13T12:04:03.550Z,55
2019-03-13T12:05:03.486Z,55
2019-03-13T12:06:03.618Z,55
2019-03-13T12:07:03.197Z,55
2019-03-13T12:08:03.217Z,54
2019-03-13T12:09:03.185Z,54
2019-03-13T12:10:03.692Z,54
2019-03-13T12:11:03.092Z,54
2019-03-13T12:12:03.088Z,54
2019-03-13T12:13:03.123Z,54
2019-03-13T12:14:03.160Z,54
2019-03-13T12:15:02.915Z,54
2019-03-13T12:16:02.999Z,54
2019-03-13T12:17:03.238Z,54
2019-03-13T12:18:03.069Z,53
2019-03-13T12:19:02.892Z,53
2019-03-13T12:20:03.039Z,53
2019-03-13T12:21:03.255Z,54
2019-03-13T12:22:02.835Z,54
2019-03-13T12:23:03.752Z,54
2019-03-13T12:24:02.760Z,55
2019-03-13T12:25:03.050Z,55
2019-03-13T12:26:03.926Z,55
2019-03-13T12:27:02.845Z,55
2019-03-13T12:28:03.923Z,55
2019-03-13T12:29:02.993Z,55
2019-03-13T12:30:03.833Z,55
2019-03-13T12:31:02.785Z,55
2019-03-13T12:32:03.422Z,55
2019-03-13T12:33:03.822Z,55
2019-03-13T12:34:03.053Z,55
2019-03-13T12:35:03.585Z,55
2019-03-13T12:36:03.777Z,55
2019-03-13T12:37:03.839Z,55
2019-03-13T12:38:03.200Z,55
2019-03-13T12:39:04.010Z,55
2019-03-13T12:40:03.934Z,55
2019-03-13T12:41:03.757Z,55
2019-03-13T12:42:03.848Z,55
2019-03-13T12:43:03.579Z,55
2019-03-13T12:44:03.225Z,55
2019-03-13T12:45:03.794Z,55
2019-03-13T12:46:03.551Z,55
2019-03-13T12:47:03.757Z,55
2019-03-13T12:48:17.387Z,55
2019-03-13T12:49:03.856Z,55
2019-03-13T12:50:03.532Z,56
2019-03-13T12:51:03.857Z,56
2019-03-13T12:52:03.776Z,56
2019-03-13T12:53:03.871Z,56
2019-03-13T12:54:03.745Z,56
2019-03-13T12:55:03.261Z,55
2019-03-13T12:56:02.935Z,55
2019-03-13T12:57:03.612Z,55
2019-03-13T12:58:03.400Z,55
2019-03-13T12:59:03.493Z,55
2019-03-13T13:00:03.547Z,55
2019-03-13T13:01:03.819Z,54
2019-03-13T13:02:02.623Z,54
2019-03-13T13:03:03.298Z,53
2019-03-13T13:04:03.539Z,52
2019-03-13T13:05:03.730Z,51
2019-03-13T13:06:03.583Z,52
2019-03-13T13:07:03.404Z,52
2019-03-13T13:08:02.991Z,53
2019-03-13T13:09:03.513Z,53
2019-03-13T13:10:03.459Z,53
2019-03-13T13:11:03.603Z,53
2019-03-13T13:12:03.308Z,53
2019-03-13T13:13:03.568Z,53
2019-03-13T13:14:03.310Z,53
2019-03-13T13:15:03.739Z,53
2019-03-13T13:16:03.272Z,53
2019-03-13T13:17:03.113Z,53
2019-03-13T13:18:02.186Z,55
2019-03-13T13:19:03.141Z,55
2019-03-13T13:20:03.326Z,55
2019-03-13T13:21:03.339Z,56
2019-03-13T13:22:03.046Z,56
2019-03-13T13:23:03.289Z,57
2019-03-13T13:24:03.176Z,57
2019-03-13T13:25:03.326Z,57
2019-03-13T13:26:03.412Z,56
2019-03-13T13:27:03.293Z,57
2019-03-13T13:28:03.086Z,56
2019-03-13T13:29:03.073Z,57
2019-03-13T13:30:03.316Z,57
2019-03-13T13:31:03.036Z,56
2019-03-13T13:32:02.856Z,56
2019-03-13T13:33:03.349Z,56
2019-03-13T13:34:03.046Z,56
2019-03-13T13:35:03.052Z,55
2019-03-13T13:36:02.988Z,55
2019-03-13T13:37:03.331Z,55
2019-03-13T13:38:03.359Z,56
2019-03-13T13:39:03.164Z,56
2019-03-13T13:40:03.835Z,56
2019-03-13T13:41:03.547Z,56
2019-03-13T13:42:03.754Z,56
2019-03-13T13:43:03.662Z,56
2019-03-13T13:44:03.889Z,56
2019-03-13T13:45:03.742Z,56
2019-03-13T13:46:03.623Z,56
2019-03-13T13:47:03.776Z,56
2019-03-13T13:48:03.376Z,56
2019-03-13T13:49:03.536Z,56
2019-03-13T13:50:03.623Z,55
2019-03-13T13:51:03.495Z,55
2019-03-13T13:52:03.513Z,54
2019-03-13T13:53:03.867Z,54
2019-03-13T13:54:03.408Z,54
2019-03-13T13:55:03.364Z,54
2019-03-13T13:56:03.052Z,52
2019-03-13T13:57:03.364Z,54
2019-03-13T13:58:03.318Z,55
2019-03-13T13:59:03.541Z,55
2019-03-13T14:00:03.440Z,54
2019-03-13T14:01:03.261Z,53
2019-03-13T14:02:03.418Z,54
2019-03-13T14:03:03.205Z,54
2019-03-13T14:04:03.299Z,54
2019-03-13T14:05:03.174Z,54
2019-03-13T14:06:03.407Z,55
2019-03-13T14:07:03.002Z,55
2019-03-13T14:08:03.159Z,55
2019-03-13T14:09:03.876Z,55
2019-03-13T14:10:03.725Z,55
2019-03-13T14:11:02.911Z,55
2019-03-13T14:12:02.863Z,55
2019-03-13T14:13:03.198Z,55
2019-03-13T14:14:02.625Z,55
2019-03-13T14:15:03.416Z,56